Waipahu, HI (96797)

11:00 PM HST on February 06, 2016 (GMT -1000)
Mililani District Park | | Change Station
CLOSE
Current Station
Personal Weather Station
Location: Mililani, HI
Elevation: 600 ft
Nearby Weather Stations

Elev 600 ft 21.44 °N, 158.02 °W | Updated 7 minutes ago

Light Drizzle
Light Drizzle
64.0 °F
Feels Like 64.0 °F
N
4.2
Wind Variable Wind from East

Today
High -- | Low -- °F
--% Chance of Precip.
Yesterday
High -- | Low -- °F
Precip. -- in
Pressure 29.99 in
Visibility 7.0 miles
Clouds Few 800 ft
Overcast 1700 ft
Dew Point 63 °F
Humidity 97%
Rainfall 0.23 in
Snow Depth Not available.
7:07 AM 6:24 PM
Waning Crescent, 2% visible
METAR PHHI 070858Z AUTO 32013G19KT 7SM -DZ FEW008 OVC017 18/17 A3001 RMK AO2 DZE16RAB16E33DZB33E42RAB42E53DZB53 CIG 013V017 SLP155 P0005 60019 T01770171 52011 $
Pressure 29.99 in
Visibility 7.0 miles
Clouds Few 800 ft
Overcast 1700 ft
Dew Point 63 °F
Humidity 97%
Rainfall 0.23 in
Snow Depth Not available.
7:07 AM 6:24 PM
Waning Crescent, 2% visible
METAR PHHI 070858Z AUTO 32013G19KT 7SM -DZ FEW008 OVC017 18/17 A3001 RMK AO2 DZE16RAB16E33DZB33E42RAB42E53DZB53 CIG 013V017 SLP155 P0005 60019 T01770171 52011 $

10-Day Weather Forecast

Almanac

Astronomy

Feb. 06, 2016 Rise Set
Actual Time
Civil Twilight
Nautical Twilight
Astronomical Twilight
Moon
Length of Visible Light
Length of Day
Tomorrow will be .
, % of the Moon is Illuminated

Today's Extremes

State Highs State Lows

Community

WunderPhotos

Upload Photos

1,891,171 photos uploaded!

WunderBlog® & News

Nearby

Air Quality

  Air Quality AQ Index Pollutant
Not available.

Snow Depth

Station Depth Elevation

Earthquake Activity

City Distance Mag. Time & Date
Minimum magnitude displayed is 2.5.

Coastal Water Temperatures

Place Temperature

Stations

Nearby Weather Stations

Station Location Temp. Windchill Dew Point Humidity Wind Precip. Elev Updated Type
                   

Watches & Warnings

There are currently no watches in effect.